Detall de PIREP

Printer-friendly versionPDF version

[2012/11/08 11:28:00]
Flight IATA:CT2112
Pilot Number:042
Company ICAO:CAT
Aircraft Type:B738/F
PAX:85
Departing Airport: LEVC
Destination Airport: LEZL
Alternate Airport:LEMD
Online: VATSIM
Route:ASTRO UM985 VIBAS
Flight Level:F310
No Slew and time accel
No pause
Crash detect
Detect pilot in Cockpit between each 30 and 45 minutes
11:28 Zero fuel Weight: 115601 Lbs, Fuel Weight: 46053 Lbs
11:28 VATSIM:LEVC 081030Z 10003KT 040V150 9999 BKN019 17/13 Q1024 NOSIG
11:28 VATSIM:LEZL 081030Z 11005KT 060V140 9999 VCSH FEW030TCU SCT049 18/15 Q1015 NOSIG
11:28 VOICE CATALONIAN
11:37 Parking Brakes off
11:42 Take-off
11:42 Take off Weight: 160868 Lbs
11:42 Wind: 102º @ 004 Knots Heading: 296º
11:42 POS N39º 29´ 39´´ W000º 29´ 42´´
11:42 Gear Up: 173 Knots
11:42 Flaps:5 at 173 Knots
11:43 Flaps:4 at 180 Knots
11:43 Flaps:3 at 190 Knots
11:43 Flaps:2 at 192 Knots
11:44 Flaps:1 at 216 Knots
11:44 Flaps:0 at 231 Knots
11:57 Wind:212º@063 Knots Heading: 229º Ground Speed: 401 Knots Altitude 29009 ft
11:58 TOC
11:58 Fuel Weight: 41664 Lb
12:12 Wind:215º@060 Knots Heading: 224º Ground Speed: 405 Knots Altitude 31177 ft
12:15 TOD
12:15 Fuel Weight: 39896 Lb
12:27 Wind:219º@025 Knots Heading: 267º Ground Speed: 292 Knots Altitude 11161 ft
12:31 Flaps:1 at 243 Knots
12:31 Flaps:2 at 242 Knots
12:35 Flaps:3 at 182 Knots
12:35 Gear Down: 182 Knots
12:35 Flaps:4 at 182 Knots
12:35 Flaps:5 at 175 Knots
12:35 Flaps:6 at 168 Knots
12:35 Flaps:7 at 162 Knots
12:36 Flaps:8 at 145 Knots
12:38 TouchDown:Rate -450 ft/min Speed: 145 Knots
12:38 VATSIM:LEZL 081200Z 06005KT 030V100 9999 -RA VCSH FEW030TCU SCT049 19/16 Q1014 NOSIG
12:38 Land
12:38 Wind:115º@005 Knots
12:38 Heading: 269º
12:38 Flight Duration: 00:56
12:38 Landing Weight: 154309 Lbs
12:38 POS N37º 25´ 04´´ W005º 53´ 33´´
12:41 Parking brakes on
12:41 Block to Block Duration: 01:04
12:41 Final Fuel: 38439 Lbls
12:41 Spent Fuel: 7614 Lbls
12:41 Flight Length: 308 NM
12:41 TOD Land Length: 105 NM

Exportar CSV

Powered by Drupal - Modified by Danger4k